createdAt,value
2018-01-16T00:00:26.644Z,81.96
2018-01-16T00:01:07.228Z,82.15
2018-01-16T00:01:47.782Z,82.15
2018-01-16T00:02:28.355Z,81.96
2018-01-16T00:03:08.911Z,82.34
2018-01-16T00:03:49.466Z,82.06
2018-01-16T00:04:30.015Z,82.72
2018-01-16T00:05:10.599Z,82.44
2018-01-16T00:05:51.186Z,81.96
2018-01-16T00:06:31.751Z,82.53
2018-01-16T00:07:12.305Z,83.1
2018-01-16T00:07:52.898Z,83.01
2018-01-16T00:08:33.486Z,83.1
2018-01-16T00:09:14.022Z,83.67
2018-01-16T00:09:54.596Z,83.76
2018-01-16T00:10:35.156Z,84.14
2018-01-16T00:11:15.724Z,84.05
2018-01-16T00:11:56.291Z,84.52
2018-01-16T00:12:36.863Z,84.81
2018-01-16T00:13:17.416Z,84.9
2018-01-16T00:13:57.977Z,84.9
2018-01-16T00:14:38.545Z,85.28
2018-01-16T00:15:19.149Z,85.19
2018-01-16T00:15:59.742Z,85.85
2018-01-16T00:16:40.310Z,85.66
2018-01-16T00:17:20.864Z,85.85
2018-01-16T00:18:01.459Z,86.32
2018-01-16T00:18:42.036Z,86.41
2018-01-16T00:19:22.600Z,86.41
2018-01-16T00:20:03.180Z,86.13
2018-01-16T00:20:43.768Z,86.51
2018-01-16T00:21:24.343Z,86.22
2018-01-16T00:22:04.916Z,86.7
2018-01-16T00:22:45.508Z,86.7
2018-01-16T00:23:26.078Z,86.7
2018-01-16T00:24:06.641Z,87.08
2018-01-16T00:24:47.195Z,86.98
2018-01-16T00:25:27.761Z,86.79
2018-01-16T00:26:08.326Z,86.7
2018-01-16T00:26:48.885Z,86.89
2018-01-16T00:27:29.445Z,86.79
2018-01-16T00:28:11.222Z,86.89
2018-01-16T00:28:51.788Z,86.6
2018-01-16T00:29:32.379Z,86.79
2018-01-16T00:30:12.938Z,86.51
2018-01-16T00:30:53.508Z,86.6
2018-01-16T00:31:34.080Z,86.7
2018-01-16T00:32:14.645Z,86.6
2018-01-16T00:32:55.214Z,86.98
2018-01-16T00:33:35.764Z,86.89
2018-01-16T00:34:16.316Z,87.08
2018-01-16T00:34:56.888Z,87.17
2018-01-16T00:35:37.471Z,86.98
2018-01-16T00:36:18.070Z,86.6
2018-01-16T00:36:58.624Z,86.79
2018-01-16T00:37:39.184Z,87.08
2018-01-16T00:38:19.744Z,86.79
2018-01-16T00:39:00.314Z,86.89
2018-01-16T00:39:40.928Z,86.89
2018-01-16T00:40:21.476Z,86.7
2018-01-16T00:41:02.056Z,86.79
2018-01-16T00:41:42.610Z,86.04
2018-01-16T00:42:23.170Z,86.79
2018-01-16T00:43:03.734Z,86.89
2018-01-16T00:43:44.302Z,86.79
2018-01-16T00:44:24.853Z,86.7
2018-01-16T00:45:05.416Z,86.7
2018-01-16T00:45:45.978Z,86.89
2018-01-16T00:46:26.534Z,86.7
2018-01-16T00:47:07.097Z,86.6
2018-01-16T00:47:47.673Z,86.79
2018-01-16T00:48:28.238Z,86.79
2018-01-16T00:49:08.814Z,86.89
2018-01-16T00:49:49.375Z,87.46
2018-01-16T00:50:29.938Z,86.98
2018-01-16T00:51:10.501Z,87.17
2018-01-16T00:51:51.067Z,87.27
2018-01-16T00:52:31.637Z,87.27
2018-01-16T00:53:12.218Z,87.55
2018-01-16T00:53:52.792Z,87.65
2018-01-16T00:54:33.360Z,87.46
2018-01-16T00:55:13.945Z,87.93
2018-01-16T00:55:54.501Z,87.46
2018-01-16T00:56:35.070Z,87.46
2018-01-16T00:57:15.635Z,87.84
2018-01-16T00:57:56.218Z,87.74
2018-01-16T00:58:36.770Z,88.4
2018-01-16T00:59:17.332Z,88.21
2018-01-16T00:59:57.886Z,88.02
2018-01-16T01:00:38.457Z,88.21
2018-01-16T01:01:19.012Z,88.59
2018-01-16T01:01:59.581Z,88.68
2018-01-16T01:02:40.141Z,88.31
2018-01-16T01:03:20.700Z,88.78
2018-01-16T01:04:01.270Z,88.97
2018-01-16T01:04:41.841Z,88.87
2018-01-16T01:05:22.455Z,89.25
2018-01-16T01:06:03.031Z,89.44
2018-01-16T01:06:43.581Z,89.35
2018-01-16T01:07:24.136Z,89.63
2018-01-16T01:08:04.703Z,90.01
2018-01-16T01:08:45.273Z,89.63
2018-01-16T01:09:25.854Z,89.92
2018-01-16T01:10:06.420Z,89.82
2018-01-16T01:10:47.002Z,90.01
2018-01-16T01:11:27.573Z,89.92
2018-01-16T01:12:08.145Z,90.3
2018-01-16T01:12:51.321Z,90.67
2018-01-16T01:13:31.900Z,90.48
2018-01-16T01:14:12.450Z,90.67
2018-01-16T01:14:53.005Z,90.86
2018-01-16T01:15:33.565Z,90.96
2018-01-16T01:16:14.134Z,91.53
2018-01-16T01:16:54.714Z,91.34
2018-01-16T01:17:35.266Z,91.34
2018-01-16T01:18:15.838Z,91.91
2018-01-16T01:18:56.399Z,91.53
2018-01-16T01:19:37.004Z,91.72
2018-01-16T01:20:17.564Z,91.62
2018-01-16T01:20:58.158Z,92.29
2018-01-16T01:21:38.732Z,92
2018-01-16T01:22:19.279Z,91.91
2018-01-16T01:22:59.849Z,92.47
2018-01-16T01:23:40.410Z,92.29
2018-01-16T01:24:20.968Z,92.1
2018-01-16T01:25:01.523Z,92.29
2018-01-16T01:25:42.093Z,92.29
2018-01-16T01:26:22.661Z,92
2018-01-16T01:27:03.228Z,92.85
2018-01-16T01:27:43.804Z,92.94
2018-01-16T01:28:24.397Z,93.13
2018-01-16T01:29:04.947Z,93.13
2018-01-16T01:29:45.513Z,93.04
2018-01-16T01:30:26.079Z,92.94
2018-01-16T01:31:06.643Z,93.04
2018-01-16T01:31:47.213Z,92.85
2018-01-16T01:32:27.780Z,92.85
2018-01-16T01:33:08.339Z,93.13
2018-01-16T01:33:48.920Z,93.13
2018-01-16T01:34:29.483Z,92.85
2018-01-16T01:35:10.051Z,92.94
2018-01-16T01:35:50.602Z,92.85
2018-01-16T01:36:31.147Z,93.13
2018-01-16T01:37:11.709Z,92.85
2018-01-16T01:37:52.279Z,93.04
2018-01-16T01:38:32.842Z,93.23
2018-01-16T01:39:13.414Z,93.32
2018-01-16T01:39:53.970Z,93.32
2018-01-16T01:40:34.523Z,93.32
2018-01-16T01:41:15.080Z,93.13
2018-01-16T01:41:55.649Z,92.57
2018-01-16T01:42:36.213Z,92.57
2018-01-16T01:43:16.761Z,92.85
2018-01-16T01:43:57.339Z,92.85
2018-01-16T01:44:37.907Z,92.85
2018-01-16T01:45:18.502Z,92.57
2018-01-16T01:45:59.065Z,92.76
2018-01-16T01:46:39.626Z,92.76
2018-01-16T01:47:20.188Z,92.57
2018-01-16T01:48:00.756Z,93.32
2018-01-16T01:48:41.434Z,92.94
2018-01-16T01:49:21.989Z,92.76
2018-01-16T01:50:02.541Z,92.66
2018-01-16T01:50:43.114Z,92.57
2018-01-16T01:51:23.674Z,92.94
2018-01-16T01:52:04.227Z,92.47
2018-01-16T01:52:44.785Z,92.1
2018-01-16T01:53:25.358Z,92.29
2018-01-16T01:54:05.913Z,92.1
2018-01-16T01:54:46.495Z,92.29
2018-01-16T01:55:27.048Z,92.1
2018-01-16T01:56:07.624Z,92.19
2018-01-16T01:56:48.195Z,92
2018-01-16T01:57:28.769Z,92.1
2018-01-16T01:58:09.336Z,92
2018-01-16T01:58:49.906Z,92.85
2018-01-16T01:59:30.475Z,92.85
2018-01-16T02:00:11.026Z,92.85
2018-01-16T02:00:51.587Z,92.85
2018-01-16T02:01:32.157Z,92.47
2018-01-16T02:02:12.713Z,92.76
2018-01-16T02:02:53.275Z,92
2018-01-16T02:03:33.844Z,92.19
2018-01-16T02:04:14.411Z,92.29
2018-01-16T02:04:54.990Z,92.19
2018-01-16T02:05:35.547Z,91.91
2018-01-16T02:06:16.100Z,92
2018-01-16T02:06:56.657Z,92.66
2018-01-16T02:07:37.238Z,92.57
2018-01-16T02:08:17.798Z,92.85
2018-01-16T02:08:58.382Z,92.66
2018-01-16T02:09:38.940Z,92.47
2018-01-16T02:10:19.496Z,92.85
2018-01-16T02:11:00.062Z,92.57
2018-01-16T02:11:40.630Z,93.13
2018-01-16T02:12:21.184Z,93.04
2018-01-16T02:13:01.769Z,93.13
2018-01-16T02:13:42.362Z,93.13
2018-01-16T02:14:22.914Z,92.94
2018-01-16T02:15:03.479Z,92.66
2018-01-16T02:15:44.029Z,93.51
2018-01-16T02:16:24.584Z,93.42
2018-01-16T02:17:05.144Z,93.89
2018-01-16T02:17:45.696Z,93.89
2018-01-16T02:18:26.267Z,93.89
2018-01-16T02:19:06.841Z,93.8
2018-01-16T02:19:47.399Z,94.08
2018-01-16T02:20:27.967Z,94.27
2018-01-16T02:21:08.545Z,94.27
2018-01-16T02:21:49.104Z,94.56
2018-01-16T02:22:29.698Z,94.84
2018-01-16T02:23:10.257Z,94.56
2018-01-16T02:23:50.825Z,94.37
2018-01-16T02:24:31.391Z,94.84
2018-01-16T02:25:11.942Z,94.65
2018-01-16T02:25:52.500Z,95.21
2018-01-16T02:26:33.054Z,95.21
2018-01-16T02:27:13.604Z,95.21
2018-01-16T02:27:54.180Z,95.5
2018-01-16T02:28:34.748Z,95.78
2018-01-16T02:29:15.335Z,95.31
2018-01-16T02:29:55.894Z,94.93
2018-01-16T02:30:36.455Z,95.12
2018-01-16T02:31:17.017Z,94.84
2018-01-16T02:31:57.573Z,94.84
2018-01-16T02:32:38.144Z,95.78
2018-01-16T02:33:18.693Z,95.4
2018-01-16T02:33:59.264Z,95.4
2018-01-16T02:34:39.822Z,95.5
2018-01-16T02:35:20.385Z,95.5
2018-01-16T02:36:00.950Z,95.97
2018-01-16T02:36:41.512Z,95.88
2018-01-16T02:37:22.066Z,95.59
2018-01-16T02:38:02.625Z,96.16
2018-01-16T02:38:43.180Z,95.78
2018-01-16T02:39:23.745Z,95.88
2018-01-16T02:40:04.314Z,96.45
2018-01-16T02:40:44.880Z,96.35
2018-01-16T02:41:25.429Z,96.35
2018-01-16T02:42:05.991Z,96.16
2018-01-16T02:42:46.548Z,96.16
2018-01-16T02:43:27.102Z,96.64
2018-01-16T02:44:07.670Z,96.35
2018-01-16T02:44:48.237Z,96.45
2018-01-16T02:45:28.800Z,96.45
2018-01-16T02:46:09.367Z,96.45
2018-01-16T02:46:49.929Z,96.45
2018-01-16T02:47:30.484Z,96.64
2018-01-16T02:48:11.051Z,96.54
2018-01-16T02:48:51.629Z,96.54
2018-01-16T02:49:32.193Z,96.73
2018-01-16T02:50:12.742Z,96.54
2018-01-16T02:50:53.303Z,96.54
2018-01-16T02:51:33.861Z,96.73
2018-01-16T02:52:14.419Z,97.2
2018-01-16T02:52:54.993Z,97.2
2018-01-16T02:53:35.555Z,97.3
2018-01-16T02:54:16.108Z,97.02
2018-01-16T02:54:56.689Z,96.83
2018-01-16T02:55:37.243Z,97.3
2018-01-16T02:56:17.793Z,96.83
2018-01-16T02:56:58.361Z,96.92
2018-01-16T02:57:38.923Z,96.83
2018-01-16T02:58:19.483Z,96.73
2018-01-16T02:59:00.051Z,96.83
2018-01-16T02:59:40.629Z,96.92
2018-01-16T03:00:21.213Z,97.3
2018-01-16T03:01:01.771Z,97.11
2018-01-16T03:01:42.334Z,97.11
2018-01-16T03:02:22.898Z,96.92
2018-01-16T03:03:03.481Z,97.02
2018-01-16T03:03:44.058Z,97.11
2018-01-16T03:04:24.603Z,97.02
2018-01-16T03:05:05.146Z,97.11
2018-01-16T03:05:45.702Z,97.2
2018-01-16T03:06:26.272Z,97.2
2018-01-16T03:07:06.865Z,96.92
2018-01-16T03:07:47.424Z,97.02
2018-01-16T03:08:27.987Z,97.02
2018-01-16T03:09:08.549Z,97.02
2018-01-16T03:09:49.114Z,97.02
2018-01-16T03:10:29.675Z,96.73
2018-01-16T03:11:10.248Z,97.02
2018-01-16T03:11:50.796Z,97.02
2018-01-16T03:12:31.355Z,97.02
2018-01-16T03:13:11.910Z,97.11
2018-01-16T03:13:52.495Z,96.92
2018-01-16T03:14:33.061Z,97.39
2018-01-16T03:15:13.622Z,97.11
2018-01-16T03:15:54.179Z,97.2
2018-01-16T03:16:34.746Z,97.96
2018-01-16T03:17:15.318Z,97.77
2018-01-16T03:17:55.905Z,97.58
2018-01-16T03:18:36.489Z,97.58
2018-01-16T03:19:17.053Z,97.68
2018-01-16T03:19:57.624Z,97.68
2018-01-16T03:20:38.199Z,97.77
2018-01-16T03:21:18.763Z,97.77
2018-01-16T03:21:59.324Z,97.49
2018-01-16T03:22:39.900Z,97.77
2018-01-16T03:23:20.471Z,97.77
2018-01-16T03:24:01.024Z,97.68
2018-01-16T03:24:41.583Z,97.68
2018-01-16T03:25:22.180Z,97.68
2018-01-16T03:26:02.727Z,97.68
2018-01-16T03:26:43.278Z,97.58
2018-01-16T03:27:23.836Z,97.68
2018-01-16T03:28:04.408Z,97.96
2018-01-16T03:28:44.979Z,97.77
2018-01-16T03:29:25.531Z,97.58
2018-01-16T03:30:06.109Z,97.77
2018-01-16T03:30:46.655Z,97.2
2018-01-16T03:31:27.238Z,97.2
2018-01-16T03:32:07.786Z,96.92
2018-01-16T03:32:48.336Z,97.39
2018-01-16T03:33:28.890Z,96.92
2018-01-16T03:34:09.476Z,97.3
2018-01-16T03:34:50.078Z,96.92
2018-01-16T03:35:30.639Z,97.2
2018-01-16T03:36:11.194Z,97.3
2018-01-16T03:36:51.748Z,97.02
2018-01-16T03:37:32.294Z,97.3
2018-01-16T03:38:12.858Z,97.02
2018-01-16T03:38:53.415Z,97.3
2018-01-16T03:39:33.966Z,97.68
2018-01-16T03:40:14.531Z,97.11
2018-01-16T03:40:55.101Z,97.2
2018-01-16T03:41:35.670Z,97.3
2018-01-16T03:42:16.235Z,97.3
2018-01-16T03:42:56.806Z,97.02
2018-01-16T03:43:37.372Z,97.11
2018-01-16T03:44:17.940Z,97.58
2018-01-16T03:44:58.496Z,97.68
2018-01-16T03:45:39.060Z,98.25
2018-01-16T03:46:19.614Z,98.06
2018-01-16T03:47:00.182Z,98.06
2018-01-16T03:47:40.728Z,98.06
2018-01-16T03:48:21.287Z,97.96
2018-01-16T03:49:01.847Z,98.15
2018-01-16T03:49:42.401Z,97.87
2018-01-16T03:50:22.996Z,97.87
2018-01-16T03:51:03.558Z,97.87
2018-01-16T03:51:44.116Z,97.77
2018-01-16T03:52:24.674Z,97.77
2018-01-16T03:53:05.256Z,97.77
2018-01-16T03:53:45.815Z,97.77
2018-01-16T03:54:26.376Z,97.49
2018-01-16T03:55:06.971Z,98.06
2018-01-16T03:55:47.531Z,97.96
2018-01-16T03:56:28.180Z,98.06
2018-01-16T03:57:08.741Z,97.87
2018-01-16T03:57:49.306Z,97.87
2018-01-16T03:58:29.855Z,97.96
2018-01-16T03:59:10.424Z,97.96
2018-01-16T03:59:50.997Z,97.96
2018-01-16T04:00:31.562Z,97.96
2018-01-16T04:01:12.132Z,97.87
2018-01-16T04:01:52.711Z,97.87
2018-01-16T04:02:33.278Z,98.06
2018-01-16T04:03:13.844Z,98.44
2018-01-16T04:03:54.400Z,98.53
2018-01-16T04:04:34.966Z,98.53
2018-01-16T04:05:15.528Z,98.44
2018-01-16T04:05:56.083Z,98.53
2018-01-16T04:06:36.647Z,98.53
2018-01-16T04:07:17.219Z,98.53
2018-01-16T04:07:57.784Z,98.53
2018-01-16T04:08:38.333Z,98.53
2018-01-16T04:09:18.893Z,98.63
2018-01-16T04:09:59.457Z,98.53
2018-01-16T04:10:40.061Z,98.25
2018-01-16T04:11:20.641Z,98.06
2018-01-16T04:12:01.209Z,98.25
2018-01-16T04:12:41.760Z,98.15
2018-01-16T04:13:22.314Z,98.91
2018-01-16T04:14:02.890Z,98.34
2018-01-16T04:14:43.454Z,98.63
2018-01-16T04:15:24.023Z,98.34
2018-01-16T04:16:04.596Z,98.25
2018-01-16T04:16:45.163Z,98.91
2018-01-16T04:17:25.720Z,98.91
2018-01-16T04:18:06.282Z,98.44
2018-01-16T04:18:46.859Z,98.91
2018-01-16T04:19:27.420Z,98.44
2018-01-16T04:20:07.994Z,98.63
2018-01-16T04:20:48.554Z,98.72
2018-01-16T04:21:29.109Z,98.72
2018-01-16T04:22:09.671Z,98.91
2018-01-16T04:22:50.262Z,98.53
2018-01-16T04:23:30.822Z,98.53
2018-01-16T04:24:11.391Z,98.72
2018-01-16T04:24:51.944Z,98.72
2018-01-16T04:25:32.512Z,98.82
2018-01-16T04:26:13.089Z,98.82
2018-01-16T04:26:53.652Z,98.72
2018-01-16T04:27:34.212Z,98.53
2018-01-16T04:28:14.762Z,98.34
2018-01-16T04:28:55.324Z,98.44
2018-01-16T04:29:35.888Z,98.53
2018-01-16T04:30:16.462Z,98.82
2018-01-16T04:30:57.007Z,98.34
2018-01-16T04:31:37.580Z,98.34
2018-01-16T04:32:18.140Z,98.72
2018-01-16T04:32:58.704Z,98.63
2018-01-16T04:33:39.270Z,98.72
2018-01-16T04:34:19.873Z,98.53
2018-01-16T04:35:00.408Z,98.82
2018-01-16T04:35:41.018Z,98.82
2018-01-16T04:36:21.571Z,98.72
2018-01-16T04:37:02.156Z,98.34
2018-01-16T04:37:42.745Z,98.91
2018-01-16T04:38:23.338Z,98.53
2018-01-16T04:39:03.905Z,98.72
2018-01-16T04:39:44.492Z,98.72
2018-01-16T04:40:25.057Z,98.63
2018-01-16T04:41:05.611Z,98.63
2018-01-16T04:41:46.173Z,98.82
2018-01-16T04:42:26.781Z,99.19
2018-01-16T04:43:07.335Z,99.01
2018-01-16T04:43:47.905Z,99.19
2018-01-16T04:44:28.462Z,98.91
2018-01-16T04:45:09.021Z,99.57
2018-01-16T04:45:49.593Z,99.19
2018-01-16T04:46:30.175Z,99.29
2018-01-16T04:47:10.737Z,99.19
2018-01-16T04:47:51.294Z,98.25
2018-01-16T04:48:31.845Z,98.53
2018-01-16T04:49:12.423Z,98.91
2018-01-16T04:49:52.983Z,99.1
2018-01-16T04:50:33.545Z,99.48
2018-01-16T04:51:14.111Z,99.19
2018-01-16T04:51:54.665Z,99.38
2018-01-16T04:52:35.224Z,99.1
2018-01-16T04:53:15.781Z,98.91
2018-01-16T04:53:56.353Z,99.95
2018-01-16T04:54:36.914Z,99.95
2018-01-16T04:55:17.477Z,99.57
2018-01-16T04:55:58.074Z,99.66
2018-01-16T04:56:38.630Z,99.66
2018-01-16T04:57:19.187Z,99.81
2018-01-16T04:57:59.745Z,99.85
2018-01-16T04:58:40.323Z,99.9
2018-01-16T04:59:20.891Z,99.71
2018-01-16T05:00:01.471Z,99.85
2018-01-16T05:00:42.042Z,99.85
2018-01-16T05:01:22.609Z,99.81
2018-01-16T05:02:03.164Z,99.81
2018-01-16T05:02:43.723Z,99.66
2018-01-16T05:03:24.276Z,99.29
2018-01-16T05:04:04.831Z,99.29
2018-01-16T05:04:45.410Z,99.48
2018-01-16T05:05:25.970Z,99.81
2018-01-16T05:06:06.541Z,99.52
2018-01-16T05:06:47.102Z,99.52
2018-01-16T05:07:27.657Z,99.52
2018-01-16T05:08:08.235Z,99.38
2018-01-16T05:08:48.796Z,99.9
2018-01-16T05:09:29.361Z,99.9
2018-01-16T05:10:09.934Z,99.9
2018-01-16T05:10:50.493Z,99.99
2018-01-16T05:11:31.051Z,99.62
2018-01-16T05:12:11.608Z,99.99
2018-01-16T05:12:52.169Z,99.99
2018-01-16T05:13:32.733Z,99.99
2018-01-16T05:14:13.302Z,99.99
2018-01-16T05:14:53.859Z,99.99
2018-01-16T05:15:34.438Z,99.99
2018-01-16T05:16:15.087Z,99.99
2018-01-16T05:16:55.690Z,99.99
2018-01-16T05:17:36.241Z,99.99
2018-01-16T05:18:16.811Z,99.58
2018-01-16T05:18:57.379Z,98.06
2018-01-16T05:19:37.933Z,97.21
2018-01-16T05:20:18.499Z,96.92
2018-01-16T05:20:59.047Z,96.55
2018-01-16T05:21:39.606Z,96.36
2018-01-16T05:22:20.170Z,96.17
2018-01-16T05:23:00.753Z,95.88
2018-01-16T05:23:41.312Z,95.64
2018-01-16T05:24:21.880Z,95.83
2018-01-16T05:25:02.445Z,96.12
2018-01-16T05:25:43.031Z,95.83
2018-01-16T05:26:23.616Z,96.31
2018-01-16T05:27:04.179Z,96.5
2018-01-16T05:27:44.743Z,96.59
2018-01-16T05:28:25.317Z,96.78
2018-01-16T05:29:05.882Z,96.97
2018-01-16T05:29:46.478Z,97.35
2018-01-16T05:30:27.033Z,96.88
2018-01-16T05:31:07.591Z,96.97
2018-01-16T05:31:48.151Z,97.54
2018-01-16T05:32:28.707Z,97.16
2018-01-16T05:33:09.267Z,97.73
2018-01-16T05:33:49.820Z,97.92
2018-01-16T05:34:30.384Z,97.44
2018-01-16T05:35:10.938Z,97.16
2018-01-16T05:35:51.499Z,97.82
2018-01-16T05:36:32.053Z,97.73
2018-01-16T05:37:12.613Z,97.92
2018-01-16T05:37:53.171Z,98.2
2018-01-16T05:38:33.739Z,97.82
2018-01-16T05:39:14.297Z,97.92
2018-01-16T05:39:54.860Z,98.11
2018-01-16T05:40:35.418Z,97.54
2018-01-16T05:41:15.975Z,97.92
2018-01-16T05:41:56.574Z,98.58
2018-01-16T05:42:37.135Z,98.39
2018-01-16T05:43:17.685Z,98.58
2018-01-16T05:43:58.331Z,98.2
2018-01-16T05:44:38.905Z,98.49
2018-01-16T05:45:19.471Z,98.2
2018-01-16T05:46:00.029Z,98.3
2018-01-16T05:46:40.601Z,98.68
2018-01-16T05:47:21.165Z,98.77
2018-01-16T05:48:01.725Z,98.39
2018-01-16T05:48:42.307Z,98.39
2018-01-16T05:49:22.883Z,98.2
2018-01-16T05:50:03.484Z,98.39
2018-01-16T05:50:44.063Z,98.3
2018-01-16T05:51:24.623Z,98.3
2018-01-16T05:52:05.181Z,98.39
2018-01-16T05:52:45.743Z,98.11
2018-01-16T05:53:26.309Z,98.77
2018-01-16T05:54:06.875Z,98.77
2018-01-16T05:54:47.456Z,98.49
2018-01-16T05:55:28.026Z,98.68
2018-01-16T05:56:08.588Z,98.77
2018-01-16T05:56:49.145Z,98.68
2018-01-16T05:57:29.719Z,98.58
2018-01-16T05:58:10.285Z,98.77
2018-01-16T05:58:50.845Z,98.39
2018-01-16T05:59:31.493Z,98.58
2018-01-16T06:00:12.044Z,98.77
2018-01-16T06:00:52.611Z,98.77
2018-01-16T06:01:33.195Z,98.58
2018-01-16T06:02:13.758Z,98.49
2018-01-16T06:02:54.327Z,98.49
2018-01-16T06:03:34.886Z,98.49
2018-01-16T06:04:15.444Z,99.15
2018-01-16T06:04:56.023Z,99.05
2018-01-16T06:05:36.571Z,99.24
2018-01-16T06:06:17.149Z,99.05
2018-01-16T06:06:57.708Z,98.39
2018-01-16T06:07:38.300Z,99.24
2018-01-16T06:08:18.861Z,98.68
2018-01-16T06:08:59.429Z,98.68
2018-01-16T06:09:39.988Z,98.96
2018-01-16T06:10:20.575Z,99.33
2018-01-16T06:11:01.216Z,99.24
2018-01-16T06:11:41.758Z,98.58
2018-01-16T06:12:22.380Z,99.33
2018-01-16T06:13:02.955Z,99.05
2018-01-16T06:13:43.525Z,99.05
2018-01-16T06:14:24.110Z,98.96
2018-01-16T06:15:04.680Z,98.96
2018-01-16T06:15:45.226Z,98.86
2018-01-16T06:16:25.782Z,98.96
2018-01-16T06:17:06.350Z,99.05
2018-01-16T06:17:46.925Z,99.05
2018-01-16T06:18:27.497Z,99.05
2018-01-16T06:19:08.055Z,99.05
2018-01-16T06:19:48.603Z,99.15
2018-01-16T06:20:29.164Z,99.52
2018-01-16T06:21:09.718Z,99.24
2018-01-16T06:21:50.313Z,99.43
2018-01-16T06:22:30.884Z,99.52
2018-01-16T06:23:11.448Z,99.33
2018-01-16T06:23:52.084Z,99.52
2018-01-16T06:24:32.632Z,99.43
2018-01-16T06:25:13.190Z,99.15
2018-01-16T06:25:53.762Z,99.24
2018-01-16T06:26:34.316Z,99.33
2018-01-16T06:27:14.875Z,99.33
2018-01-16T06:27:55.446Z,99.05
2018-01-16T06:28:36.012Z,99.52
2018-01-16T06:29:16.587Z,99.15
2018-01-16T06:29:57.155Z,99.43
2018-01-16T06:30:37.708Z,99.33
2018-01-16T06:31:18.278Z,99.62
2018-01-16T06:31:58.912Z,99.62
2018-01-16T06:32:39.493Z,99.9
2018-01-16T06:33:20.054Z,99.62
2018-01-16T06:34:00.665Z,99.62
2018-01-16T06:34:41.201Z,99.81
2018-01-16T06:35:21.792Z,99.33
2018-01-16T06:36:02.360Z,99.33
2018-01-16T06:36:42.917Z,99.99
2018-01-16T06:37:23.492Z,99.9
2018-01-16T06:38:04.086Z,99.71
2018-01-16T06:38:44.652Z,99.62
2018-01-16T06:39:25.212Z,99.9
2018-01-16T06:40:05.770Z,99.71
2018-01-16T06:40:46.330Z,99.81
2018-01-16T06:41:26.890Z,99.81
2018-01-16T06:42:07.518Z,99.9
2018-01-16T06:42:48.229Z,99.99
2018-01-16T06:43:28.792Z,99.99
2018-01-16T06:44:09.350Z,99.99
2018-01-16T06:44:49.910Z,99.99
2018-01-16T06:45:30.465Z,99.99
2018-01-16T06:46:11.041Z,99.99
2018-01-16T06:46:51.605Z,99.99
2018-01-16T06:47:32.184Z,99.99
2018-01-16T06:48:12.751Z,99.99
2018-01-16T06:48:53.311Z,99.99
2018-01-16T06:49:33.893Z,99.99
2018-01-16T06:50:14.503Z,99.99
2018-01-16T06:50:55.070Z,99.53
2018-01-16T06:51:35.630Z,98.73
2018-01-16T06:52:16.199Z,98.16
2018-01-16T06:52:56.759Z,97.88
2018-01-16T06:53:37.325Z,96.73
2018-01-16T06:54:17.897Z,95.69
2018-01-16T06:54:58.460Z,95.22
2018-01-16T06:55:39.022Z,94.37
2018-01-16T06:56:19.577Z,94.37
2018-01-16T06:57:00.140Z,94.08
2018-01-16T06:57:40.703Z,93.04
2018-01-16T06:58:21.268Z,92.71
2018-01-16T06:59:01.850Z,92.04
2018-01-16T06:59:42.408Z,91.28
2018-01-16T07:00:22.978Z,90.52
2018-01-16T07:01:03.569Z,90.14
2018-01-16T07:01:44.123Z,90.33
2018-01-16T07:02:24.692Z,89.86
2018-01-16T07:03:05.247Z,90.05
2018-01-16T07:03:45.839Z,90.14
2018-01-16T07:04:26.468Z,89.86
2018-01-16T07:05:07.108Z,89.2
2018-01-16T07:05:47.793Z,88.81
2018-01-16T07:06:28.466Z,88.39
2018-01-16T07:07:09.051Z,88.2
2018-01-16T07:07:49.599Z,87.05
2018-01-16T07:08:30.231Z,87.05
2018-01-16T07:09:10.874Z,86.87
2018-01-16T07:09:51.433Z,85.91
2018-01-16T07:10:32.005Z,85.49
2018-01-16T07:11:12.669Z,85.4
2018-01-16T07:11:53.187Z,85.4
2018-01-16T07:12:33.777Z,85.78
2018-01-16T07:14:46.568Z,86.87
2018-01-16T07:15:27.197Z,87.25
2018-01-16T07:16:07.850Z,87.63
2018-01-16T07:16:48.464Z,87.92
2018-01-16T07:17:29.088Z,88.96
2018-01-16T07:18:09.730Z,88.77
2018-01-16T07:18:50.335Z,89.43
2018-01-16T07:19:31.034Z,90.19
2018-01-16T07:20:11.668Z,90.15
2018-01-16T07:20:52.242Z,90.81
2018-01-16T07:21:32.834Z,91
2018-01-16T07:22:13.463Z,91.66
2018-01-16T07:22:54.107Z,91.76
2018-01-16T07:23:34.806Z,91.57
2018-01-16T07:24:15.411Z,92.23
2018-01-16T07:24:56.033Z,92.42
2018-01-16T07:25:36.619Z,92.8
2018-01-16T07:26:17.204Z,92.71
2018-01-16T07:26:57.795Z,93.27
2018-01-16T07:27:38.411Z,92.8
2018-01-16T07:28:19.107Z,93.08
2018-01-16T07:28:59.745Z,93.84
2018-01-16T07:29:40.308Z,93.94
2018-01-16T07:30:20.935Z,93.94
2018-01-16T07:31:01.570Z,94.42
2018-01-16T07:31:42.151Z,94.42
2018-01-16T07:32:22.788Z,94.7
2018-01-16T07:33:03.365Z,94.6
2018-01-16T07:33:43.972Z,94.6
2018-01-16T07:34:24.587Z,94.89
2018-01-16T07:35:05.294Z,95.26
2018-01-16T07:35:45.890Z,95.45
2018-01-16T07:36:26.454Z,95.36
2018-01-16T07:37:07.020Z,94.98
2018-01-16T07:37:47.568Z,95.74
2018-01-16T07:38:28.145Z,95.36
2018-01-16T07:39:08.705Z,95.17
2018-01-16T07:39:49.260Z,95.84
2018-01-16T07:40:29.841Z,95.84
2018-01-16T07:41:10.447Z,95.55
2018-01-16T07:41:51.013Z,96.22
2018-01-16T07:42:31.610Z,95.74
2018-01-16T07:43:12.198Z,95.84
2018-01-16T07:43:52.800Z,95.93
2018-01-16T07:44:33.355Z,95.65
2018-01-16T07:45:13.929Z,96.41
2018-01-16T07:45:54.502Z,96.31
2018-01-16T07:46:35.090Z,96.5
2018-01-16T07:47:15.665Z,96.31
2018-01-16T07:47:56.312Z,96.41
2018-01-16T07:48:36.880Z,96.69
2018-01-16T07:49:17.467Z,97.16
2018-01-16T07:49:58.060Z,97.07
2018-01-16T07:50:38.713Z,96.5
2018-01-16T07:51:19.339Z,96.69
2018-01-16T07:51:59.937Z,97.45
2018-01-16T07:52:40.710Z,97.26
2018-01-16T07:53:21.292Z,97.26
2018-01-16T07:54:01.914Z,97.07
2018-01-16T07:54:42.569Z,97.07
2018-01-16T07:55:23.180Z,96.97
2018-01-16T07:56:03.776Z,96.97
2018-01-16T07:56:44.393Z,97.07
2018-01-16T07:57:25.004Z,97.07
2018-01-16T07:58:05.563Z,97.26
2018-01-16T07:58:46.110Z,96.97
2018-01-16T07:59:26.827Z,97.35
2018-01-16T08:00:07.482Z,97.54
2018-01-16T08:00:48.034Z,97.54
2018-01-16T08:01:28.584Z,97.64
2018-01-16T08:02:09.160Z,97.54
2018-01-16T08:02:49.716Z,97.64
2018-01-16T08:03:30.288Z,97.64
2018-01-16T08:04:10.898Z,97.73
2018-01-16T08:04:51.502Z,97.92
2018-01-16T08:05:32.100Z,97.64
2018-01-16T08:06:12.691Z,98.11
2018-01-16T08:06:53.373Z,97.92
2018-01-16T08:07:33.948Z,97.92
2018-01-16T08:08:14.508Z,98.11
2018-01-16T08:08:55.079Z,97.92
2018-01-16T08:09:35.632Z,97.92
2018-01-16T08:10:16.199Z,97.73
2018-01-16T08:10:56.794Z,97.92
2018-01-16T08:11:37.365Z,97.35
2018-01-16T08:12:18.018Z,97.83
2018-01-16T08:12:58.566Z,97.07
2018-01-16T08:13:39.135Z,97.35
2018-01-16T08:14:19.790Z,97.16
2018-01-16T08:15:00.348Z,97.26
2018-01-16T08:15:40.937Z,97.26
2018-01-16T08:16:21.516Z,97.26
2018-01-16T08:17:02.098Z,97.16
2018-01-16T08:17:42.649Z,97.26
2018-01-16T08:18:23.216Z,97.16
2018-01-16T08:19:03.765Z,97.07
2018-01-16T08:19:44.315Z,97.16
2018-01-16T08:20:24.883Z,97.26
2018-01-16T08:21:05.440Z,97.16
2018-01-16T08:21:46.014Z,97.83
2018-01-16T08:22:26.568Z,97.26
2018-01-16T08:23:07.139Z,98.02
2018-01-16T08:23:47.722Z,97.26
2018-01-16T08:24:28.313Z,97.35
2018-01-16T08:25:08.871Z,97.83
2018-01-16T08:25:49.473Z,97.92
2018-01-16T08:26:30.043Z,97.92
2018-01-16T08:27:10.637Z,97.73
2018-01-16T08:27:51.215Z,97.54
2018-01-16T08:28:31.890Z,97.83
2018-01-16T08:29:12.470Z,98.02
2018-01-16T08:29:53.047Z,97.16
2018-01-16T08:30:33.589Z,97.26
2018-01-16T08:31:14.169Z,97.07
2018-01-16T08:31:54.774Z,97.26
2018-01-16T08:32:35.338Z,97.07
2018-01-16T08:33:15.895Z,97.26
2018-01-16T08:33:56.499Z,97.26
2018-01-16T08:34:37.130Z,97.26
2018-01-16T08:35:17.697Z,97.26
2018-01-16T08:35:58.252Z,97.26
2018-01-16T08:36:38.825Z,97.83
2018-01-16T08:37:19.415Z,97.16
2018-01-16T08:37:59.961Z,97.07
2018-01-16T08:38:40.521Z,97.07
2018-01-16T08:39:21.101Z,97.07
2018-01-16T08:40:01.655Z,97.35
2018-01-16T08:40:42.211Z,98.21
2018-01-16T08:41:22.811Z,97.83
2018-01-16T08:42:03.408Z,97.92
2018-01-16T08:42:43.954Z,97.64
2018-01-16T08:43:24.538Z,98.02
2018-01-16T08:44:05.100Z,97.83
2018-01-16T08:44:45.646Z,97.73
2018-01-16T08:45:26.257Z,97.83
2018-01-16T08:46:06.815Z,97.92